sensor_id;sensor_type;location;lat;lon;timestamp;pressure;altitude;pressure_sealevel;temperature;humidity
76137;BME280;68622;53.128;17.966;2023-07-29T00:01:26;100534.46;;;15.95;72.76
76137;BME280;68622;53.128;17.966;2023-07-29T00:03:52;100537.36;;;15.93;72.73
76137;BME280;68622;53.128;17.966;2023-07-29T00:06:19;100537.99;;;15.90;72.66
76137;BME280;68622;53.128;17.966;2023-07-29T00:08:45;100541.43;;;15.88;72.69
76137;BME280;68622;53.128;17.966;2023-07-29T00:11:12;100540.16;;;15.85;72.84
76137;BME280;68622;53.128;17.966;2023-07-29T00:13:39;100541.77;;;15.83;73.00
76137;BME280;68622;53.128;17.966;2023-07-29T00:16:05;100543.55;;;15.80;72.89
76137;BME280;68622;53.128;17.966;2023-07-29T00:18:32;100543.35;;;15.79;72.84
76137;BME280;68622;53.128;17.966;2023-07-29T00:20:59;100540.97;;;15.78;72.80
76137;BME280;68622;53.128;17.966;2023-07-29T00:23:25;100537.72;;;15.76;73.23
76137;BME280;68622;53.128;17.966;2023-07-29T00:25:52;100541.92;;;15.74;73.00
76137;BME280;68622;53.128;17.966;2023-07-29T00:28:19;100541.56;;;15.71;72.85
76137;BME280;68622;53.128;17.966;2023-07-29T00:30:45;100544.27;;;15.71;72.70
76137;BME280;68622;53.128;17.966;2023-07-29T00:33:12;100542.95;;;15.70;72.55
76137;BME280;68622;53.128;17.966;2023-07-29T00:35:38;100545.40;;;15.71;72.46
76137;BME280;68622;53.128;17.966;2023-07-29T00:38:05;100548.00;;;15.69;72.37
76137;BME280;68622;53.128;17.966;2023-07-29T00:40:35;100544.81;;;15.64;72.44
76137;BME280;68622;53.128;17.966;2023-07-29T00:43:03;100546.27;;;15.61;72.65
76137;BME280;68622;53.128;17.966;2023-07-29T00:45:31;100548.00;;;15.59;72.49
76137;BME280;68622;53.128;17.966;2023-07-29T00:47:59;100549.21;;;15.56;72.42
76137;BME280;68622;53.128;17.966;2023-07-29T00:50:27;100552.00;;;15.57;72.28
76137;BME280;68622;53.128;17.966;2023-07-29T00:52:56;100554.34;;;15.54;72.44
76137;BME280;68622;53.128;17.966;2023-07-29T00:55:23;100554.77;;;15.50;72.50
76137;BME280;68622;53.128;17.966;2023-07-29T00:57:51;100560.77;;;15.47;72.46
76137;BME280;68622;53.128;17.966;2023-07-29T01:00:21;100561.16;;;15.43;72.58
76137;BME280;68622;53.128;17.966;2023-07-29T01:02:48;100557.73;;;15.39;72.70
76137;BME280;68622;53.128;17.966;2023-07-29T01:05:16;100561.36;;;15.35;72.73
76137;BME280;68622;53.128;17.966;2023-07-29T01:07:59;100563.45;;;15.32;72.80
76137;BME280;68622;53.128;17.966;2023-07-29T01:13:31;100556.01;;;15.27;73.14
76137;BME280;68622;53.128;17.966;2023-07-29T01:16:25;100553.55;;;15.24;73.04
76137;BME280;68622;53.128;17.966;2023-07-29T01:18:58;100555.29;;;15.21;73.03
76137;BME280;68622;53.128;17.966;2023-07-29T01:21:27;100551.19;;;15.18;73.04
76137;BME280;68622;53.128;17.966;2023-07-29T01:23:58;100550.16;;;15.15;73.21
76137;BME280;68622;53.128;17.966;2023-07-29T01:26:25;100548.69;;;15.12;73.15
76137;BME280;68622;53.128;17.966;2023-07-29T01:28:52;100540.64;;;15.09;73.30
76137;BME280;68622;53.128;17.966;2023-07-29T01:31:37;100541.13;;;15.06;73.25
76137;BME280;68622;53.128;17.966;2023-07-29T01:34:15;100535.65;;;15.05;73.25
76137;BME280;68622;53.128;17.966;2023-07-29T01:36:44;100538.17;;;15.03;73.08
76137;BME280;68622;53.128;17.966;2023-07-29T01:39:14;100538.27;;;15.02;72.89
76137;BME280;68622;53.128;17.966;2023-07-29T01:41:41;100535.84;;;15.02;72.95
76137;BME280;68622;53.128;17.966;2023-07-29T01:44:10;100539.70;;;14.98;73.25
76137;BME280;68622;53.128;17.966;2023-07-29T01:46:38;100540.36;;;14.94;73.15
76137;BME280;68622;53.128;17.966;2023-07-29T01:49:04;100539.79;;;14.89;73.30
76137;BME280;68622;53.128;17.966;2023-07-29T01:51:31;100542.46;;;14.83;73.17
76137;BME280;68622;53.128;17.966;2023-07-29T01:53:58;100539.08;;;14.77;73.09
76137;BME280;68622;53.128;17.966;2023-07-29T01:56:26;100545.33;;;14.73;73.05
76137;BME280;68622;53.128;17.966;2023-07-29T01:58:55;100549.27;;;14.69;73.18
76137;BME280;68622;53.128;17.966;2023-07-29T02:01:22;100553.50;;;14.65;73.03
76137;BME280;68622;53.128;17.966;2023-07-29T02:03:49;100557.63;;;14.61;73.18
76137;BME280;68622;53.128;17.966;2023-07-29T02:06:21;100559.95;;;14.59;73.10
76137;BME280;68622;53.128;17.966;2023-07-29T02:08:48;100560.57;;;14.56;73.23
76137;BME280;68622;53.128;17.966;2023-07-29T02:11:14;100561.45;;;14.56;73.25
76137;BME280;68622;53.128;17.966;2023-07-29T02:13:41;100560.27;;;14.58;73.26
76137;BME280;68622;53.128;17.966;2023-07-29T02:16:08;100556.86;;;14.58;72.99
76137;BME280;68622;53.128;17.966;2023-07-29T02:18:34;100557.46;;;14.61;72.88
76137;BME280;68622;53.128;17.966;2023-07-29T02:21:01;100563.58;;;14.64;72.87
76137;BME280;68622;53.128;17.966;2023-07-29T02:23:28;100564.63;;;14.64;72.85
76137;BME280;68622;53.128;17.966;2023-07-29T02:25:55;100564.42;;;14.59;72.92
76137;BME280;68622;53.128;17.966;2023-07-29T02:28:21;100565.52;;;14.54;73.05
76137;BME280;68622;53.128;17.966;2023-07-29T02:31:09;100566.40;;;14.49;73.05
76137;BME280;68622;53.128;17.966;2023-07-29T02:33:37;100567.56;;;14.39;73.64
76137;BME280;68622;53.128;17.966;2023-07-29T02:36:03;100566.79;;;14.35;73.13
76137;BME280;68622;53.128;17.966;2023-07-29T02:38:30;100566.00;;;14.30;73.20
76137;BME280;68622;53.128;17.966;2023-07-29T02:40:57;100565.30;;;14.25;73.11
76137;BME280;68622;53.128;17.966;2023-07-29T02:43:23;100565.21;;;14.21;73.16
76137;BME280;68622;53.128;17.966;2023-07-29T02:45:50;100563.52;;;14.17;73.33
76137;BME280;68622;53.128;17.966;2023-07-29T02:48:16;100574.91;;;14.15;73.28
76137;BME280;68622;53.128;17.966;2023-07-29T02:50:43;100574.27;;;14.13;73.17
76137;BME280;68622;53.128;17.966;2023-07-29T02:53:10;100576.11;;;14.10;73.14
76137;BME280;68622;53.128;17.966;2023-07-29T02:55:40;100577.40;;;14.08;73.49
76137;BME280;68622;53.128;17.966;2023-07-29T02:58:07;100583.08;;;14.05;73.47
76137;BME280;68622;53.128;17.966;2023-07-29T03:00:34;100584.67;;;14.03;73.38
76137;BME280;68622;53.128;17.966;2023-07-29T03:03:00;100583.30;;;14.01;73.62
76137;BME280;68622;53.128;17.966;2023-07-29T03:05:27;100584.66;;;14.00;73.48
76137;BME280;68622;53.128;17.966;2023-07-29T03:07:54;100586.58;;;13.98;73.48
76137;BME280;68622;53.128;17.966;2023-07-29T03:10:21;100587.83;;;13.98;73.40
76137;BME280;68622;53.128;17.966;2023-07-29T03:12:48;100590.23;;;13.98;73.42
76137;BME280;68622;53.128;17.966;2023-07-29T03:15:15;100592.14;;;13.98;73.57
76137;BME280;68622;53.128;17.966;2023-07-29T03:17:42;100592.70;;;14.00;73.44
76137;BME280;68622;53.128;17.966;2023-07-29T03:20:08;100594.15;;;14.01;73.61
76137;BME280;68622;53.128;17.966;2023-07-29T03:22:35;100589.84;;;14.04;73.29
76137;BME280;68622;53.128;17.966;2023-07-29T03:25:01;100589.64;;;14.11;73.28
76137;BME280;68622;53.128;17.966;2023-07-29T03:27:28;100589.70;;;14.15;73.13
76137;BME280;68622;53.128;17.966;2023-07-29T03:29:55;100585.90;;;14.17;73.23
76137;BME280;68622;53.128;17.966;2023-07-29T03:32:21;100586.00;;;14.17;73.27
76137;BME280;68622;53.128;17.966;2023-07-29T03:34:48;100584.12;;;14.20;73.32
76137;BME280;68622;53.128;17.966;2023-07-29T03:37:14;100581.86;;;14.22;73.59
76137;BME280;68622;53.128;17.966;2023-07-29T03:39:41;100580.27;;;14.23;73.47
76137;BME280;68622;53.128;17.966;2023-07-29T03:42:07;100578.29;;;14.26;73.28
76137;BME280;68622;53.128;17.966;2023-07-29T03:44:34;100583.64;;;14.30;73.27
76137;BME280;68622;53.128;17.966;2023-07-29T03:47:01;100586.84;;;14.34;73.17
76137;BME280;68622;53.128;17.966;2023-07-29T03:49:28;100585.82;;;14.39;73.22
76137;BME280;68622;53.128;17.966;2023-07-29T03:51:55;100584.09;;;14.42;73.12
76137;BME280;68622;53.128;17.966;2023-07-29T03:54:21;100587.38;;;14.46;73.11
76137;BME280;68622;53.128;17.966;2023-07-29T03:56:48;100589.93;;;14.53;72.89
76137;BME280;68622;53.128;17.966;2023-07-29T03:59:14;100593.34;;;14.60;72.86
76137;BME280;68622;53.128;17.966;2023-07-29T04:01:41;100599.58;;;14.68;72.69
76137;BME280;68622;53.128;17.966;2023-07-29T04:04:08;100604.33;;;14.76;72.62
76137;BME280;68622;53.128;17.966;2023-07-29T04:06:34;100607.98;;;14.81;72.41
76137;BME280;68622;53.128;17.966;2023-07-29T04:09:01;100604.90;;;14.89;72.35
76137;BME280;68622;53.128;17.966;2023-07-29T04:11:28;100609.95;;;14.95;72.29
76137;BME280;68622;53.128;17.966;2023-07-29T04:13:54;100612.28;;;15.06;72.30
76137;BME280;68622;53.128;17.966;2023-07-29T04:16:21;100614.80;;;15.16;72.30
76137;BME280;68622;53.128;17.966;2023-07-29T04:18:47;100613.81;;;15.27;72.58
76137;BME280;68622;53.128;17.966;2023-07-29T04:21:14;100614.36;;;15.41;72.20
76137;BME280;68622;53.128;17.966;2023-07-29T04:23:41;100618.77;;;15.47;72.11
76137;BME280;68622;53.128;17.966;2023-07-29T04:26:07;100614.23;;;15.50;72.11
76137;BME280;68622;53.128;17.966;2023-07-29T04:28:34;100611.00;;;15.57;71.73
76137;BME280;68622;53.128;17.966;2023-07-29T04:31:00;100608.95;;;15.63;71.65
76137;BME280;68622;53.128;17.966;2023-07-29T04:33:29;100610.48;;;15.70;71.33
76137;BME280;68622;53.128;17.966;2023-07-29T04:35:57;100614.95;;;15.77;71.34
76137;BME280;68622;53.128;17.966;2023-07-29T04:38:30;100616.30;;;15.79;71.25
76137;BME280;68622;53.128;17.966;2023-07-29T04:40:57;100623.41;;;15.82;71.03
76137;BME280;68622;53.128;17.966;2023-07-29T04:43:31;100621.89;;;15.85;71.00
76137;BME280;68622;53.128;17.966;2023-07-29T04:45:58;100619.85;;;15.89;70.97
76137;BME280;68622;53.128;17.966;2023-07-29T04:48:25;100623.21;;;15.91;71.14
76137;BME280;68622;53.128;17.966;2023-07-29T04:50:51;100623.64;;;16.05;71.15
76137;BME280;68622;53.128;17.966;2023-07-29T04:53:18;100623.71;;;16.24;70.99
76137;BME280;68622;53.128;17.966;2023-07-29T04:55:45;100627.27;;;16.42;70.85
76137;BME280;68622;53.128;17.966;2023-07-29T04:58:12;100624.18;;;16.68;70.53
76137;BME280;68622;53.128;17.966;2023-07-29T05:00:38;100624.21;;;16.89;70.02
76137;BME280;68622;53.128;17.966;2023-07-29T05:03:05;100625.48;;;17.08;69.22
76137;BME280;68622;53.128;17.966;2023-07-29T05:05:32;100630.24;;;17.29;68.59
76137;BME280;68622;53.128;17.966;2023-07-29T05:07:59;100631.73;;;17.55;68.62
76137;BME280;68622;53.128;17.966;2023-07-29T05:10:25;100630.75;;;17.74;68.27
76137;BME280;68622;53.128;17.966;2023-07-29T05:12:52;100626.17;;;17.97;67.82
76137;BME280;68622;53.128;17.966;2023-07-29T05:15:19;100624.91;;;18.09;66.70
76137;BME280;68622;53.128;17.966;2023-07-29T05:17:45;100624.06;;;18.35;66.92
76137;BME280;68622;53.128;17.966;2023-07-29T05:20:12;100626.20;;;18.62;66.65
76137;BME280;68622;53.128;17.966;2023-07-29T05:22:38;100622.73;;;18.82;65.73
76137;BME280;68622;53.128;17.966;2023-07-29T05:25:05;100623.70;;;18.92;64.82
76137;BME280;68622;53.128;17.966;2023-07-29T05:27:32;100622.04;;;19.09;64.98
76137;BME280;68622;53.128;17.966;2023-07-29T05:29:59;100617.55;;;19.24;65.15
76137;BME280;68622;53.128;17.966;2023-07-29T05:32:25;100615.79;;;19.36;64.22
76137;BME280;68622;53.128;17.966;2023-07-29T05:34:52;100616.16;;;19.53;64.15
76137;BME280;68622;53.128;17.966;2023-07-29T05:37:19;100611.80;;;19.69;64.23
76137;BME280;68622;53.128;17.966;2023-07-29T05:39:46;100614.60;;;19.78;63.45
76137;BME280;68622;53.128;17.966;2023-07-29T05:42:12;100618.11;;;19.93;63.09
76137;BME280;68622;53.128;17.966;2023-07-29T05:44:39;100615.50;;;20.17;63.17
76137;BME280;68622;53.128;17.966;2023-07-29T05:47:06;100614.34;;;20.41;62.45
76137;BME280;68622;53.128;17.966;2023-07-29T05:49:32;100609.86;;;20.60;60.28
76137;BME280;68622;53.128;17.966;2023-07-29T05:52:01;100608.73;;;20.68;59.52
76137;BME280;68622;53.128;17.966;2023-07-29T05:54:28;100608.03;;;20.85;60.12
76137;BME280;68622;53.128;17.966;2023-07-29T05:56:54;100604.14;;;21.05;60.20
76137;BME280;68622;53.128;17.966;2023-07-29T05:59:21;100609.27;;;21.29;59.76
76137;BME280;68622;53.128;17.966;2023-07-29T06:01:50;100609.92;;;21.38;57.84
76137;BME280;68622;53.128;17.966;2023-07-29T06:04:17;100607.82;;;21.48;57.64
76137;BME280;68622;53.128;17.966;2023-07-29T06:06:43;100609.73;;;21.48;57.04
76137;BME280;68622;53.128;17.966;2023-07-29T06:09:10;100615.38;;;21.55;56.98
76137;BME280;68622;53.128;17.966;2023-07-29T06:11:36;100611.66;;;21.75;57.72
76137;BME280;68622;53.128;17.966;2023-07-29T06:14:03;100614.54;;;21.77;56.68
76137;BME280;68622;53.128;17.966;2023-07-29T06:16:29;100614.89;;;21.82;56.49
76137;BME280;68622;53.128;17.966;2023-07-29T06:18:56;100615.27;;;22.00;57.07
76137;BME280;68622;53.128;17.966;2023-07-29T06:21:23;100613.45;;;22.13;56.60
76137;BME280;68622;53.128;17.966;2023-07-29T06:23:50;100609.23;;;22.23;56.34
76137;BME280;68622;53.128;17.966;2023-07-29T06:26:16;100605.79;;;22.39;55.85
76137;BME280;68622;53.128;17.966;2023-07-29T06:28:43;100608.66;;;22.58;56.25
76137;BME280;68622;53.128;17.966;2023-07-29T06:31:10;100611.58;;;22.65;54.71
76137;BME280;68622;53.128;17.966;2023-07-29T06:33:36;100607.33;;;22.78;54.97
76137;BME280;68622;53.128;17.966;2023-07-29T06:36:03;100609.23;;;22.79;54.16
76137;BME280;68622;53.128;17.966;2023-07-29T06:38:31;100607.55;;;22.83;54.32
76137;BME280;68622;53.128;17.966;2023-07-29T06:40:58;100607.35;;;22.95;55.16
76137;BME280;68622;53.128;17.966;2023-07-29T06:43:24;100605.75;;;23.01;54.56
76137;BME280;68622;53.128;17.966;2023-07-29T06:45:51;100607.92;;;23.05;54.23
76137;BME280;68622;53.128;17.966;2023-07-29T06:48:18;100611.41;;;23.19;54.60
76137;BME280;68622;53.128;17.966;2023-07-29T06:50:46;100612.48;;;23.24;54.48
76137;BME280;68622;53.128;17.966;2023-07-29T06:53:13;100617.81;;;23.20;52.87
76137;BME280;68622;53.128;17.966;2023-07-29T06:55:39;100618.98;;;23.29;53.36
76137;BME280;68622;53.128;17.966;2023-07-29T06:58:06;100616.12;;;23.41;53.58
76137;BME280;68622;53.128;17.966;2023-07-29T07:00:33;100610.83;;;23.51;52.96
76137;BME280;68622;53.128;17.966;2023-07-29T07:02:59;100609.48;;;23.59;52.52
76137;BME280;68622;53.128;17.966;2023-07-29T07:05:27;100601.98;;;23.68;52.45
76137;BME280;68622;53.128;17.966;2023-07-29T07:07:53;100593.63;;;23.75;52.01
76137;BME280;68622;53.128;17.966;2023-07-29T07:10:20;100590.81;;;23.71;52.33
76137;BME280;68622;53.128;17.966;2023-07-29T07:12:46;100590.21;;;23.82;51.99
76137;BME280;68622;53.128;17.966;2023-07-29T07:15:13;100590.80;;;23.85;51.25
76137;BME280;68622;53.128;17.966;2023-07-29T07:17:39;100589.89;;;23.82;51.61
76137;BME280;68622;53.128;17.966;2023-07-29T07:20:07;100592.50;;;24.01;52.49
76137;BME280;68622;53.128;17.966;2023-07-29T07:22:33;100592.61;;;24.09;51.62
76137;BME280;68622;53.128;17.966;2023-07-29T07:25:00;100588.17;;;24.12;50.60
76137;BME280;68622;53.128;17.966;2023-07-29T07:27:26;100590.02;;;24.20;51.30
76137;BME280;68622;53.128;17.966;2023-07-29T07:29:53;100586.08;;;24.31;51.24
76137;BME280;68622;53.128;17.966;2023-07-29T07:32:20;100585.80;;;24.46;51.46
76137;BME280;68622;53.128;17.966;2023-07-29T07:34:46;100587.11;;;24.56;50.35
76137;BME280;68622;53.128;17.966;2023-07-29T07:37:13;100585.73;;;24.60;48.99
76137;BME280;68622;53.128;17.966;2023-07-29T07:39:39;100585.04;;;24.72;49.11
76137;BME280;68622;53.128;17.966;2023-07-29T07:42:06;100587.33;;;24.65;48.78
76137;BME280;68622;53.128;17.966;2023-07-29T07:44:32;100581.59;;;24.70;49.67
76137;BME280;68622;53.128;17.966;2023-07-29T07:46:59;100577.84;;;24.81;49.91
76137;BME280;68622;53.128;17.966;2023-07-29T07:49:25;100576.41;;;24.91;48.96
76137;BME280;68622;53.128;17.966;2023-07-29T07:51:52;100573.92;;;24.97;49.27
76137;BME280;68622;53.128;17.966;2023-07-29T07:54:19;100576.34;;;24.88;47.70
76137;BME280;68622;53.128;17.966;2023-07-29T07:56:45;100569.69;;;24.98;48.80
76137;BME280;68622;53.128;17.966;2023-07-29T07:59:12;100568.70;;;25.04;48.06
76137;BME280;68622;53.128;17.966;2023-07-29T08:01:39;100569.84;;;25.12;48.64
76137;BME280;68622;53.128;17.966;2023-07-29T08:04:05;100570.23;;;25.20;48.14
76137;BME280;68622;53.128;17.966;2023-07-29T08:06:33;100568.02;;;25.15;45.43
76137;BME280;68622;53.128;17.966;2023-07-29T08:08:59;100564.11;;;25.18;46.92
76137;BME280;68622;53.128;17.966;2023-07-29T08:11:26;100562.80;;;25.22;47.11
76137;BME280;68622;53.128;17.966;2023-07-29T08:13:52;100560.90;;;25.30;47.11
76137;BME280;68622;53.128;17.966;2023-07-29T08:16:19;100559.99;;;25.44;47.74
76137;BME280;68622;53.128;17.966;2023-07-29T08:18:46;100559.65;;;25.53;46.88
76137;BME280;68622;53.128;17.966;2023-07-29T08:21:14;100559.33;;;25.59;46.65
76137;BME280;68622;53.128;17.966;2023-07-29T08:23:40;100557.27;;;25.63;45.89
76137;BME280;68622;53.128;17.966;2023-07-29T08:26:07;100553.80;;;25.69;45.45
76137;BME280;68622;53.128;17.966;2023-07-29T08:28:36;100550.96;;;25.74;45.06
76137;BME280;68622;53.128;17.966;2023-07-29T08:31:04;100549.66;;;25.82;45.72
76137;BME280;68622;53.128;17.966;2023-07-29T08:33:31;100542.80;;;25.82;45.71
76137;BME280;68622;53.128;17.966;2023-07-29T08:36:00;100541.77;;;25.81;45.46
76137;BME280;68622;53.128;17.966;2023-07-29T08:38:27;100537.36;;;25.76;44.79
76137;BME280;68622;53.128;17.966;2023-07-29T08:41:01;100536.71;;;25.65;43.93
76137;BME280;68622;53.128;17.966;2023-07-29T08:43:32;100533.67;;;25.54;44.58
76137;BME280;68622;53.128;17.966;2023-07-29T08:45:59;100530.84;;;25.67;44.75
76137;BME280;68622;53.128;17.966;2023-07-29T08:48:46;100535.05;;;25.33;44.59
76137;BME280;68622;53.128;17.966;2023-07-29T08:51:14;100536.15;;;25.77;44.77
76137;BME280;68622;53.128;17.966;2023-07-29T08:53:42;100531.36;;;25.96;44.05
76137;BME280;68622;53.128;17.966;2023-07-29T08:56:09;100526.04;;;26.19;43.22
76137;BME280;68622;53.128;17.966;2023-07-29T08:58:36;100530.73;;;26.30;43.36
76137;BME280;68622;53.128;17.966;2023-07-29T09:01:03;100528.70;;;26.33;42.92
76137;BME280;68622;53.128;17.966;2023-07-29T09:03:30;100524.21;;;26.43;42.96
76137;BME280;68622;53.128;17.966;2023-07-29T09:05:58;100521.44;;;26.46;43.01
76137;BME280;68622;53.128;17.966;2023-07-29T09:08:28;100519.21;;;26.38;43.39
76137;BME280;68622;53.128;17.966;2023-07-29T09:10:55;100519.59;;;26.43;43.52
76137;BME280;68622;53.128;17.966;2023-07-29T09:13:23;100517.84;;;26.60;43.64
76137;BME280;68622;53.128;17.966;2023-07-29T09:15:54;100516.05;;;26.69;42.96
76137;BME280;68622;53.128;17.966;2023-07-29T09:18:21;100516.63;;;26.87;43.32
76137;BME280;68622;53.128;17.966;2023-07-29T09:20:50;100516.88;;;27.01;42.94
76137;BME280;68622;53.128;17.966;2023-07-29T09:23:17;100514.20;;;27.27;42.45
76137;BME280;68622;53.128;17.966;2023-07-29T09:25:46;100514.34;;;27.29;41.65
76137;BME280;68622;53.128;17.966;2023-07-29T09:28:15;100511.88;;;27.45;41.64
76137;BME280;68622;53.128;17.966;2023-07-29T09:30:45;100513.80;;;27.53;41.47
76137;BME280;68622;53.128;17.966;2023-07-29T09:33:13;100507.12;;;27.72;41.69
76137;BME280;68622;53.128;17.966;2023-07-29T09:35:39;100511.70;;;27.71;41.57
76137;BME280;68622;53.128;17.966;2023-07-29T09:38:07;100507.23;;;27.73;41.17
76137;BME280;68622;53.128;17.966;2023-07-29T09:40:41;100502.98;;;27.80;41.09
76137;BME280;68622;53.128;17.966;2023-07-29T09:43:10;100498.93;;;27.71;40.58
76137;BME280;68622;53.128;17.966;2023-07-29T09:45:37;100502.11;;;27.63;40.93
76137;BME280;68622;53.128;17.966;2023-07-29T09:48:05;100500.60;;;27.67;41.29
76137;BME280;68622;53.128;17.966;2023-07-29T09:50:36;100497.16;;;27.76;41.53
76137;BME280;68622;53.128;17.966;2023-07-29T09:53:03;100497.89;;;27.86;41.53
76137;BME280;68622;53.128;17.966;2023-07-29T09:55:32;100496.58;;;27.95;40.96
76137;BME280;68622;53.128;17.966;2023-07-29T09:58:01;100491.36;;;27.99;40.67
76137;BME280;68622;53.128;17.966;2023-07-29T10:00:32;100487.19;;;27.99;40.42
76137;BME280;68622;53.128;17.966;2023-07-29T10:02:59;100484.52;;;27.97;39.86
76137;BME280;68622;53.128;17.966;2023-07-29T10:05:28;100479.11;;;28.11;40.39
76137;BME280;68622;53.128;17.966;2023-07-29T10:07:56;100477.42;;;28.01;39.66
76137;BME280;68622;53.128;17.966;2023-07-29T10:10:23;100479.18;;;27.86;40.44
76137;BME280;68622;53.128;17.966;2023-07-29T10:12:50;100478.58;;;27.67;39.82
76137;BME280;68622;53.128;17.966;2023-07-29T10:15:17;100479.44;;;27.53;40.04
76137;BME280;68622;53.128;17.966;2023-07-29T10:17:46;100474.36;;;27.57;40.89
76137;BME280;68622;53.128;17.966;2023-07-29T10:20:13;100475.52;;;27.37;40.11
76137;BME280;68622;53.128;17.966;2023-07-29T10:22:41;100475.64;;;27.28;40.38
76137;BME280;68622;53.128;17.966;2023-07-29T10:25:33;100472.38;;;27.62;40.75
76137;BME280;68622;53.128;17.966;2023-07-29T10:28:08;100472.80;;;27.91;39.98
76137;BME280;68622;53.128;17.966;2023-07-29T10:30:38;100472.66;;;28.15;39.45
76137;BME280;68622;53.128;17.966;2023-07-29T10:33:05;100464.77;;;28.17;38.69
76137;BME280;68622;53.128;17.966;2023-07-29T10:35:33;100462.50;;;28.35;39.24
76137;BME280;68622;53.128;17.966;2023-07-29T10:38:02;100468.13;;;28.55;39.10
76137;BME280;68622;53.128;17.966;2023-07-29T10:40:52;100470.92;;;28.68;38.73
76137;BME280;68622;53.128;17.966;2023-07-29T10:43:36;100457.89;;;28.81;38.38
76137;BME280;68622;53.128;17.966;2023-07-29T10:46:23;100457.45;;;28.79;38.49
76137;BME280;68622;53.128;17.966;2023-07-29T10:51:36;100448.96;;;28.57;38.33
76137;BME280;68622;53.128;17.966;2023-07-29T10:54:14;100444.79;;;28.55;38.22
76137;BME280;68622;53.128;17.966;2023-07-29T10:56:47;100440.99;;;28.57;38.48
76137;BME280;68622;53.128;17.966;2023-07-29T11:01:57;100430.42;;;28.63;38.88
76137;BME280;68622;53.128;17.966;2023-07-29T11:04:26;100427.45;;;28.72;38.91
76137;BME280;68622;53.128;17.966;2023-07-29T11:09:51;100421.63;;;28.79;38.24
76137;BME280;68622;53.128;17.966;2023-07-29T11:12:53;100424.03;;;28.59;38.61
76137;BME280;68622;53.128;17.966;2023-07-29T11:15:26;100411.77;;;28.49;38.73
76137;BME280;68622;53.128;17.966;2023-07-29T11:17:56;100419.88;;;28.44;38.80
76137;BME280;68622;53.128;17.966;2023-07-29T11:20:27;100408.27;;;28.36;38.70
76137;BME280;68622;53.128;17.966;2023-07-29T11:22:56;100404.55;;;28.23;39.14
76137;BME280;68622;53.128;17.966;2023-07-29T11:25:26;100405.50;;;28.19;39.58
76137;BME280;68622;53.128;17.966;2023-07-29T11:27:55;100404.84;;;28.17;39.43
76137;BME280;68622;53.128;17.966;2023-07-29T11:30:22;100398.11;;;28.26;39.68
76137;BME280;68622;53.128;17.966;2023-07-29T11:32:50;100402.03;;;28.50;39.58
76137;BME280;68622;53.128;17.966;2023-07-29T11:35:17;100397.31;;;28.61;38.94
76137;BME280;68622;53.128;17.966;2023-07-29T11:37:47;100393.52;;;28.66;39.09
76137;BME280;68622;53.128;17.966;2023-07-29T11:40:18;100389.88;;;28.66;39.23
76137;BME280;68622;53.128;17.966;2023-07-29T11:42:47;100381.91;;;28.67;39.64
76137;BME280;68622;53.128;17.966;2023-07-29T11:45:14;100379.85;;;28.79;39.44
76137;BME280;68622;53.128;17.966;2023-07-29T11:47:41;100378.75;;;28.90;39.37
76137;BME280;68622;53.128;17.966;2023-07-29T11:50:11;100379.36;;;29.01;39.15
76137;BME280;68622;53.128;17.966;2023-07-29T11:52:44;100380.83;;;29.12;39.25
76137;BME280;68622;53.128;17.966;2023-07-29T11:55:12;100377.21;;;28.84;38.93
76137;BME280;68622;53.128;17.966;2023-07-29T11:57:40;100373.53;;;28.85;38.75
76137;BME280;68622;53.128;17.966;2023-07-29T12:00:09;100368.97;;;28.99;38.76
76137;BME280;68622;53.128;17.966;2023-07-29T12:02:39;100367.20;;;29.00;38.98
76137;BME280;68622;53.128;17.966;2023-07-29T12:05:07;100365.48;;;28.94;39.24
76137;BME280;68622;53.128;17.966;2023-07-29T12:07:35;100359.86;;;28.81;38.88
76137;BME280;68622;53.128;17.966;2023-07-29T12:10:03;100354.26;;;28.85;39.23
76137;BME280;68622;53.128;17.966;2023-07-29T12:12:30;100350.20;;;28.91;39.08
76137;BME280;68622;53.128;17.966;2023-07-29T12:14:57;100345.77;;;28.96;38.84
76137;BME280;68622;53.128;17.966;2023-07-29T12:17:23;100339.66;;;29.00;39.13
76137;BME280;68622;53.128;17.966;2023-07-29T12:19:54;100342.11;;;28.97;39.21
76137;BME280;68622;53.128;17.966;2023-07-29T12:22:20;100333.11;;;28.96;39.04
76137;BME280;68622;53.128;17.966;2023-07-29T12:24:50;100333.02;;;29.05;39.02
76137;BME280;68622;53.128;17.966;2023-07-29T12:27:17;100333.11;;;28.96;38.76
76137;BME280;68622;53.128;17.966;2023-07-29T12:29:44;100325.95;;;29.00;39.42
76137;BME280;68622;53.128;17.966;2023-07-29T12:32:12;100318.99;;;29.11;39.61
76137;BME280;68622;53.128;17.966;2023-07-29T12:34:40;100320.55;;;29.16;39.15
76137;BME280;68622;53.128;17.966;2023-07-29T12:37:07;100314.44;;;29.28;39.37
76137;BME280;68622;53.128;17.966;2023-07-29T12:39:39;100305.52;;;29.39;38.64
76137;BME280;68622;53.128;17.966;2023-07-29T12:42:06;100306.74;;;29.38;38.52
76137;BME280;68622;53.128;17.966;2023-07-29T12:44:35;100301.64;;;29.39;38.89
76137;BME280;68622;53.128;17.966;2023-07-29T12:47:03;100301.80;;;29.42;38.53
76137;BME280;68622;53.128;17.966;2023-07-29T12:49:30;100297.36;;;29.39;38.71
76137;BME280;68622;53.128;17.966;2023-07-29T12:52:00;100302.77;;;29.36;38.81
76137;BME280;68622;53.128;17.966;2023-07-29T12:54:26;100294.58;;;29.48;38.15
76137;BME280;68622;53.128;17.966;2023-07-29T12:56:53;100287.16;;;29.46;37.92